Time;durP1;ratioP1;P1;durP2;ratioP2;P2;SDS_P1;SDS_P2;PMS_P1;PMS_P2;Temp;Humidity;BMP_temperature;BMP_pressure;BME280_temperature;BME280_humidity;BME280_pressure;Samples;Min_cycle;Max_cycle;Signal;HPM_P1;HPM_P2
2022/08/09 00:01:04;;;;;;;7.90;3.50;;;;;;;20.14;49.23;101018.34;105869;1274;123876;-73
2022/08/09 00:03:47;;;;;;;6.30;3.30;;;;;;;20.13;49.29;101024.39;105991;1274;108959;-73
2022/08/09 00:06:40;;;;;;;7.00;4.30;;;;;;;20.13;49.17;101022.31;106035;1274;138526;-74
2022/08/09 00:09:16;;;;;;;8.00;4.60;;;;;;;20.12;49.15;101026.06;106021;1274;96504;-74
2022/08/09 00:11:52;;;;;;;9.80;5.00;;;;;;;20.10;49.43;101030.05;106035;1274;137580;-75
2022/08/09 00:14:35;;;;;;;9.50;5.40;;;;;;;20.09;49.47;101029.92;106027;1274;111102;-74
2022/08/09 00:17:10;;;;;;;9.30;5.30;;;;;;;20.08;49.44;101032.98;106076;1274;108826;-77
2022/08/09 00:20:03;;;;;;;9.50;6.20;;;;;;;20.06;49.54;101030.79;105952;1274;108811;-77
2022/08/09 00:22:35;;;;;;;12.90;5.60;;;;;;;20.05;49.61;101030.86;105998;1274;96636;-78
2022/08/09 00:25:11;;;;;;;12.20;5.90;;;;;;;20.05;49.70;101032.98;105871;1274;138416;-77
2022/08/09 00:27:43;;;;;;;9.40;5.50;;;;;;;20.04;49.78;101028.49;106362;1274;110123;-76
2022/08/09 00:30:19;;;;;;;10.00;5.40;;;;;;;20.02;49.77;101029.30;105924;1274;139748;-78
2022/08/09 00:32:57;;;;;;;8.00;5.10;;;;;;;19.99;50.12;101027.73;105945;1274;108977;-77
2022/08/09 00:35:29;;;;;;;13.30;5.10;;;;;;;19.97;50.18;101027.65;105825;1274;138517;-78
2022/08/09 00:38:14;;;;;;;9.90;4.40;;;;;;;19.94;50.37;101028.73;105977;1274;96487;-78
2022/08/09 00:40:52;;;;;;;12.00;4.30;;;;;;;19.92;50.60;101028.80;106099;1274;110992;-76
2022/08/09 00:43:26;;;;;;;6.50;3.70;;;;;;;19.90;50.79;101031.02;105912;1274;138259;-76
2022/08/09 00:46:36;;;;;;;9.70;3.40;;;;;;;19.85;50.79;101031.48;106012;1274;108806;-77
2022/08/09 00:49:28;;;;;;;5.10;3.20;;;;;;;19.78;51.07;101033.33;107371;1276;139281;-77
2022/08/09 00:52:02;;;;;;;8.80;3.50;;;;;;;19.73;51.27;101034.70;107482;1275;94374;-76
2022/08/09 00:54:37;;;;;;;7.60;2.90;;;;;;;19.68;51.52;101035.50;107390;1275;137363;-77
2022/08/09 00:57:14;;;;;;;6.10;2.90;;;;;;;19.64;51.55;101039.62;106284;1276;107960;-78
2022/08/09 01:00:08;;;;;;;7.10;2.80;;;;;;;19.59;51.65;101039.23;105766;1276;137687;-77
2022/08/09 01:03:03;;;;;;;8.20;3.30;;;;;;;19.52;51.97;101038.67;105846;1276;96525;-76
2022/08/09 01:05:41;;;;;;;5.00;2.80;;;;;;;19.47;52.27;101040.20;105881;1276;137469;-77
2022/08/09 01:08:42;;;;;;;7.80;3.10;;;;;;;19.44;52.44;101037.55;105774;1276;108701;-77
2022/08/09 01:11:29;;;;;;;5.70;2.70;;;;;;;19.40;52.50;101038.88;105856;1276;138574;-75
2022/08/09 01:14:09;;;;;;;4.80;2.70;;;;;;;19.34;52.64;101035.65;105823;1277;109162;-76
2022/08/09 01:16:50;;;;;;;4.50;2.50;;;;;;;19.29;52.91;101039.97;105938;1276;96524;-75
2022/08/09 01:19:33;;;;;;;9.50;3.00;;;;;;;19.25;52.83;101040.73;105851;1276;138018;-73
2022/08/09 01:22:44;;;;;;;7.50;2.70;;;;;;;19.18;52.93;101041.79;105841;1276;111212;-74
2022/08/09 01:25:33;;;;;;;12.10;3.20;;;;;;;19.12;53.19;101043.06;105792;1276;137692;-77
2022/08/09 01:28:14;;;;;;;10.90;3.40;;;;;;;19.05;53.31;101043.08;105873;1276;108955;-78
2022/08/09 01:30:47;;;;;;;6.50;2.60;;;;;;;19.00;53.54;101043.89;105758;1276;138150;-78
2022/08/09 01:33:28;;;;;;;8.00;3.10;;;;;;;18.95;53.82;101041.85;105893;1276;97017;-79
2022/08/09 01:36:05;;;;;;;8.70;2.80;;;;;;;18.93;53.89;101044.98;105805;1276;138118;-78
2022/08/09 01:38:42;;;;;;;8.40;2.70;;;;;;;18.90;53.98;101043.39;105964;1276;108891;-79
2022/08/09 01:41:22;;;;;;;4.30;2.60;;;;;;;18.87;54.30;101039.15;105945;1276;140161;-74
2022/08/09 01:44:01;;;;;;;8.50;3.00;;;;;;;18.83;54.34;101037.40;106226;1276;96505;-79
2022/08/09 01:46:38;;;;;;;5.80;2.40;;;;;;;18.81;54.38;101038.23;105869;1278;96501;-78
2022/08/09 01:49:14;;;;;;;5.20;2.40;;;;;;;18.80;54.55;101046.75;105806;1276;140297;-78
2022/08/09 01:51:49;;;;;;;7.50;2.30;;;;;;;18.78;54.61;101045.96;105879;1276;108777;-78
2022/08/09 01:54:30;;;;;;;11.30;2.80;;;;;;;18.77;54.63;101044.62;105817;1276;138790;-77
2022/08/09 01:57:08;;;;;;;6.30;2.80;;;;;;;18.75;54.77;101046.30;105875;1276;96519;-78
2022/08/09 01:59:45;;;;;;;5.10;2.30;;;;;;;18.76;55.17;101048.91;105755;1276;138191;-77
2022/08/09 02:02:28;;;;;;;5.30;2.30;;;;;;;18.77;55.09;101046.02;105895;1276;110112;-80
2022/08/09 02:05:05;;;;;;;6.70;3.00;;;;;;;18.78;55.18;101048.27;105906;1276;108895;-81
2022/08/09 02:07:49;;;;;;;6.80;3.00;;;;;;;18.79;55.07;101051.18;105873;1276;109167;-81
2022/08/09 02:10:46;;;;;;;4.50;2.40;;;;;;;18.79;55.19;101052.59;105918;1276;96514;-79
2022/08/09 02:13:27;;;;;;;5.30;2.60;;;;;;;18.79;55.16;101051.93;105861;1276;138282;-80
2022/08/09 02:16:13;;;;;;;6.50;2.70;;;;;;;18.78;55.36;101053.01;105884;1276;111493;-78
2022/08/09 02:18:45;;;;;;;7.80;2.90;;;;;;;18.77;55.09;101054.51;105827;1276;138297;-77
2022/08/09 02:21:23;;;;;;;10.00;2.70;;;;;;;18.74;55.38;101055.68;106052;1276;108814;-79
2022/08/09 02:23:59;;;;;;;4.10;2.30;;;;;;;18.73;55.43;101058.58;105793;1276;138894;-79
2022/08/09 02:26:36;;;;;;;6.20;2.50;;;;;;;18.72;55.70;101060.36;105861;1276;96622;-78
2022/08/09 02:29:16;;;;;;;6.00;2.60;;;;;;;18.72;55.79;101061.96;105841;1276;111101;-77
2022/08/09 02:31:49;;;;;;;4.00;2.40;;;;;;;18.72;55.87;101057.55;106674;1276;108265;-78
2022/08/09 02:34:25;;;;;;;6.60;2.50;;;;;;;18.71;55.94;101060.79;105900;1276;108818;-76
2022/08/09 02:37:17;;;;;;;9.00;2.70;;;;;;;18.70;55.80;101062.09;105761;1276;138339;-77
2022/08/09 02:39:55;;;;;;;8.30;2.90;;;;;;;18.67;55.93;101062.56;105949;1276;96518;-76
2022/08/09 02:42:38;;;;;;;5.00;2.50;;;;;;;18.66;56.25;101060.84;105754;1276;138031;-73
2022/08/09 02:45:15;;;;;;;6.30;2.70;;;;;;;18.66;56.18;101061.05;105965;1276;107683;-74
2022/08/09 02:47:49;;;;;;;5.80;2.60;;;;;;;18.65;56.35;101062.67;105781;1276;138628;-75
2022/08/09 02:50:35;;;;;;;7.70;2.60;;;;;;;18.67;56.53;101060.64;105916;1276;96531;-76
2022/08/09 02:53:09;;;;;;;;;;;;;;;18.68;56.42;101063.23;105942;1276;97374;-76
2022/08/09 02:56:00;;;;;;;7.70;3.40;;;;;;;18.66;56.39;101063.85;105919;1276;112007;-75
2022/08/09 02:58:34;;;;;;;6.40;2.50;;;;;;;18.64;56.59;101067.81;105897;1276;108867;-74
2022/08/09 03:01:10;;;;;;;6.80;2.70;;;;;;;18.64;56.77;101065.67;107327;1276;139701;-75
2022/08/09 03:04:02;;;;;;;7.70;2.50;;;;;;;18.65;56.57;101066.34;105921;1276;96544;-74
2022/08/09 03:06:52;;;;;;;10.20;2.80;;;;;;;18.64;56.55;101067.98;105764;1276;138180;-76
2022/08/09 03:09:25;;;;;;;6.40;2.60;;;;;;;18.63;56.75;101067.88;106285;1276;111500;-76
2022/08/09 03:12:05;;;;;;;10.00;2.80;;;;;;;18.64;56.64;101073.64;105958;1276;139192;-75
2022/08/09 03:14:45;;;;;;;10.90;2.70;;;;;;;18.62;56.87;101073.70;106047;1276;107753;-77
2022/08/09 03:17:19;;;;;;;7.40;2.80;;;;;;;18.62;56.90;101075.66;105964;1276;96603;-75
2022/08/09 03:20:00;;;;;;;5.80;2.50;;;;;;;18.63;56.97;101076.52;105994;1276;96490;-73
2022/08/09 03:22:39;;;;;;;7.30;2.80;;;;;;;18.64;56.96;101074.88;106066;1276;111008;-74
2022/08/09 03:25:15;;;;;;;8.50;2.80;;;;;;;18.64;56.92;101074.32;105826;1276;139498;-75
2022/08/09 03:28:08;;;;;;;4.80;2.50;;;;;;;18.65;57.14;101076.40;105937;1276;109115;-74
2022/08/09 03:30:43;;;;;;;7.20;2.90;;;;;;;18.66;57.28;101070.91;105786;1276;139677;-74
2022/08/09 03:33:21;;;;;;;6.70;2.50;;;;;;;18.68;57.38;101073.63;105922;1276;96427;-74
2022/08/09 03:35:54;;;;;;;7.60;2.70;;;;;;;18.70;57.28;101070.88;105792;1276;138574;-74
2022/08/09 03:38:46;;;;;;;5.50;3.20;;;;;;;18.74;57.21;101070.69;105868;1276;108751;-75
2022/08/09 03:41:21;;;;;;;8.10;3.20;;;;;;;18.77;57.34;101072.11;105795;1276;138369;-74
2022/08/09 03:44:01;;;;;;;5.20;3.00;;;;;;;18.79;57.41;101074.27;105918;1276;96638;-75
2022/08/09 03:46:39;;;;;;;6.50;3.10;;;;;;;18.82;57.46;101074.30;105886;1276;96536;-78
2022/08/09 03:49:14;;;;;;;8.00;2.70;;;;;;;18.84;57.48;101072.40;105870;1276;137947;-76
2022/08/09 03:51:54;;;;;;;6.70;2.90;;;;;;;18.87;57.59;101072.29;105866;1276;109349;-77
2022/08/09 03:54:37;;;;;;;6.20;2.90;;;;;;;18.90;57.42;101076.01;105794;1276;138154;-77
2022/08/09 03:57:12;;;;;;;8.60;2.60;;;;;;;18.90;57.47;101076.68;105949;1276;96582;-76
2022/08/09 03:59:54;;;;;;;8.40;3.00;;;;;;;18.91;57.45;101077.84;105881;1276;138378;-77
2022/08/09 04:02:44;;;;;;;8.30;3.20;;;;;;;18.94;57.56;101079.44;105967;1275;109395;-77
2022/08/09 04:05:24;;;;;;;5.50;2.90;;;;;;;18.97;57.41;101079.64;105760;1276;138643;-77
2022/08/09 04:07:59;;;;;;;13.80;7.20;;;;;;;18.99;57.26;101083.77;105963;1275;109021;-76
2022/08/09 04:10:32;;;;;;;24.90;16.20;;;;;;;19.00;57.28;101086.52;105861;1276;96593;-75
2022/08/09 04:13:08;;;;;;;8.30;4.70;;;;;;;19.03;57.43;101082.85;105846;1276;138392;-77
2022/08/09 04:15:43;;;;;;;9.70;3.90;;;;;;;19.06;57.36;101082.52;105953;1276;110118;-81
2022/08/09 04:18:35;;;;;;;4.60;3.00;;;;;;;19.08;57.24;101082.77;105777;1276;140150;-81
2022/08/09 04:21:08;;;;;;;8.90;3.30;;;;;;;19.09;57.18;101082.52;105900;1276;107566;-80
2022/08/09 04:23:40;;;;;;;8.30;3.10;;;;;;;19.12;57.35;101085.02;105804;1276;138425;-80
2022/08/09 04:26:25;;;;;;;6.50;3.30;;;;;;;19.15;57.18;101079.92;105916;1276;96509;-82
2022/08/09 04:29:09;;;;;;;7.80;3.30;;;;;;;19.14;56.91;101082.96;105952;1276;110807;-79
2022/08/09 04:31:46;;;;;;;9.00;3.10;;;;;;;19.14;57.00;101087.39;105979;1276;108813;-79
2022/08/09 04:34:20;;;;;;;7.30;3.10;;;;;;;19.14;57.11;101083.64;105867;1276;108951;-76
2022/08/09 04:37:03;;;;;;;11.70;2.80;;;;;;;19.16;57.18;101083.00;105855;1276;139804;-77
2022/08/09 04:39:35;;;;;;;6.70;3.00;;;;;;;19.18;57.23;101080.09;105975;1276;96506;-77
2022/08/09 04:42:11;;;;;;;5.60;3.00;;;;;;;19.20;57.28;101078.02;105737;1278;139504;-77
2022/08/09 04:44:46;;;;;;;7.90;3.10;;;;;;;19.20;57.21;101085.05;105898;1276;108862;-76
2022/08/09 04:47:20;;;;;;;8.20;2.90;;;;;;;19.21;57.31;101089.09;105737;1276;139882;-76
2022/08/09 04:49:53;;;;;;;8.80;3.30;;;;;;;19.20;57.19;101095.12;105915;1276;96523;-76
2022/08/09 04:52:28;;;;;;;8.20;3.30;;;;;;;19.17;57.18;101091.74;105904;1276;96646;-76
2022/08/09 04:55:02;;;;;;;8.50;3.10;;;;;;;19.16;57.48;101094.46;105827;1276;138843;-77
2022/08/09 04:57:43;;;;;;;5.30;2.90;;;;;;;19.18;57.44;101097.02;105895;1276;108824;-76
2022/08/09 05:00:29;;;;;;;10.50;3.40;;;;;;;19.21;57.62;101097.91;105756;1276;138209;-77
2022/08/09 05:03:06;;;;;;;8.00;3.10;;;;;;;19.25;57.62;101096.80;105871;1276;96508;-77
2022/08/09 05:05:58;;;;;;;7.80;3.10;;;;;;;19.29;57.35;101101.36;106421;1276;138364;-78
2022/08/09 05:08:38;;;;;;;6.00;3.20;;;;;;;19.32;57.53;101100.65;105806;1276;110274;-77
2022/08/09 05:11:14;;;;;;;8.80;3.00;;;;;;;19.36;57.34;101100.62;105829;1278;109223;-77
2022/08/09 05:13:47;;;;;;;9.60;3.40;;;;;;;19.39;57.21;101100.27;105923;1276;108685;-77
2022/08/09 05:16:19;;;;;;;10.10;3.40;;;;;;;19.44;57.35;101101.79;105834;1276;96515;-77
2022/08/09 05:19:03;;;;;;;10.50;3.60;;;;;;;19.48;57.38;101102.59;105897;1276;138170;-77
2022/08/09 05:21:38;;;;;;;7.10;3.60;;;;;;;19.53;57.24;101109.90;105921;1275;111088;-77
2022/08/09 05:24:18;;;;;;;8.10;3.40;;;;;;;19.57;57.00;101112.36;105732;1278;138631;-77
2022/08/09 05:26:50;;;;;;;6.30;3.20;;;;;;;19.60;57.10;101114.51;105911;1276;107803;-77
2022/08/09 05:29:22;;;;;;;10.30;3.50;;;;;;;19.64;57.00;101111.29;105771;1276;138436;-76
2022/08/09 05:32:01;;;;;;;8.20;3.10;;;;;;;19.70;56.78;101116.23;105836;1276;96511;-78
2022/08/09 05:34:36;;;;;;;6.90;3.30;;;;;;;19.75;56.71;101116.81;105907;1276;110987;-78
2022/08/09 05:37:14;;;;;;;9.60;4.20;;;;;;;19.79;56.54;101116.20;105874;1276;138272;-77
2022/08/09 05:39:46;;;;;;;11.20;3.80;;;;;;;19.83;56.31;101113.87;105869;1277;110755;-78
2022/08/09 05:42:20;;;;;;;12.00;3.80;;;;;;;19.88;56.31;101113.90;105830;1276;140100;-74
2022/08/09 05:45:00;;;;;;;11.30;3.20;;;;;;;19.94;56.25;101115.21;106012;1276;96371;-76
2022/08/09 05:47:32;;;;;;;12.00;3.50;;;;;;;20.01;56.32;101117.95;105874;1276;138513;-76
2022/08/09 05:50:04;;;;;;;8.90;3.60;;;;;;;20.07;56.32;101118.14;105930;1276;108893;-75
2022/08/09 05:52:56;;;;;;;12.00;3.60;;;;;;;20.14;56.03;101119.16;105893;1276;108746;-74
2022/08/09 05:55:29;;;;;;;11.40;3.30;;;;;;;20.18;55.93;101115.55;105831;1276;139336;-77
2022/08/09 05:58:02;;;;;;;9.30;4.10;;;;;;;20.26;55.76;101118.44;105891;1276;96514;-81
2022/08/09 06:00:38;;;;;;;13.20;3.30;;;;;;;20.33;55.84;101120.70;105848;1276;137317;-78
2022/08/09 06:03:11;;;;;;;10.90;3.60;;;;;;;20.40;55.55;101123.30;105917;1276;107863;-77
2022/08/09 06:05:51;;;;;;;9.60;3.50;;;;;;;20.46;55.55;101125.55;105764;1276;137917;-76
2022/08/09 06:08:36;;;;;;;8.80;3.10;;;;;;;20.53;55.18;101124.48;105965;1277;96516;-77
2022/08/09 06:11:11;;;;;;;7.00;3.30;;;;;;;20.57;55.09;101127.39;105889;1278;96377;-77
2022/08/09 06:13:48;;;;;;;12.30;8.30;;;;;;;20.61;55.04;101126.80;106083;1276;111171;-77
2022/08/09 06:16:22;;;;;;;16.50;7.80;;;;;;;20.66;54.97;101130.97;105883;1277;109044;-77
2022/08/09 06:18:54;;;;;;;9.00;4.40;;;;;;;20.69;54.71;101132.52;105755;1277;137594;-79
2022/08/09 06:21:29;;;;;;;12.30;3.70;;;;;;;20.73;54.70;101134.77;105858;1277;96592;-71
2022/08/09 06:24:01;;;;;;;5.80;3.50;;;;;;;20.77;54.78;101128.86;105819;1277;137794;-73
2022/08/09 06:26:35;;;;;;;10.00;3.00;;;;;;;20.83;54.97;101132.21;105898;1276;111065;-71
2022/08/09 06:29:08;;;;;;;9.90;3.20;;;;;;;20.89;54.62;101130.92;105871;1277;108296;-69
2022/08/09 06:31:46;;;;;;;6.20;3.10;;;;;;;20.94;54.29;101134.35;105867;1277;108975;-71
2022/08/09 06:34:39;;;;;;;9.20;3.40;;;;;;;20.99;54.25;101132.80;105963;1277;96610;-71
2022/08/09 06:37:12;;;;;;;10.20;3.70;;;;;;;21.06;54.37;101132.16;105875;1277;139355;-71
2022/08/09 06:39:44;;;;;;;10.60;3.80;;;;;;;21.14;53.94;101137.70;105912;1277;109642;-71
2022/08/09 06:42:31;;;;;;;9.90;3.40;;;;;;;21.22;53.79;101136.17;105798;1277;137773;-75
2022/08/09 06:45:05;;;;;;;5.70;3.00;;;;;;;21.32;53.90;101136.98;105964;1277;107862;-71
2022/08/09 06:47:57;;;;;;;8.50;3.30;;;;;;;21.42;53.47;101136.36;105688;1278;139114;-71
2022/08/09 06:50:32;;;;;;;8.10;3.40;;;;;;;21.48;53.26;101137.20;105799;1278;96537;-72
2022/08/09 06:53:04;;;;;;;10.30;3.50;;;;;;;21.56;53.01;101142.54;105807;1278;111061;-71
2022/08/09 06:55:36;;;;;;;7.10;3.30;;;;;;;21.62;52.98;101142.45;105893;1277;138815;-70
2022/08/09 06:58:09;;;;;;;10.00;3.10;;;;;;;21.71;53.01;101142.29;106508;1276;108804;-71
2022/08/09 07:01:01;;;;;;;8.40;3.70;;;;;;;21.79;52.52;101143.91;105904;1278;137955;-71
2022/08/09 07:03:35;;;;;;;9.00;3.30;;;;;;;21.85;52.56;101145.05;105876;1277;96597;-71
2022/08/09 07:06:22;;;;;;;8.50;3.60;;;;;;;21.95;52.33;101144.45;105788;1276;137412;-73
2022/08/09 07:08:58;;;;;;;5.70;3.10;;;;;;;22.01;52.07;101142.94;105923;1277;107770;-71
2022/08/09 07:11:31;;;;;;;8.50;3.20;;;;;;;22.09;51.94;101143.36;105838;1276;138761;-71
2022/08/09 07:14:17;;;;;;;11.40;3.00;;;;;;;22.18;51.97;101143.95;105731;1277;96528;-72
2022/08/09 07:16:57;;;;;;;6.80;3.10;;;;;;;22.30;51.79;101149.56;105985;1276;96508;-71
2022/08/09 07:19:29;;;;;;;7.50;3.40;;;;;;;22.41;51.44;101150.62;105744;1277;137272;-72
2022/08/09 07:22:02;;;;;;;7.60;3.50;;;;;;;22.52;51.49;101157.30;105950;1277;107588;-72
2022/08/09 07:24:34;;;;;;;5.50;2.90;;;;;;;22.62;51.50;101155.75;105807;1277;137530;-72
2022/08/09 07:27:15;;;;;;;6.60;3.00;;;;;;;22.73;51.09;101153.93;105809;1277;96685;-73
2022/08/09 07:30:06;;;;;;;9.10;3.80;;;;;;;22.83;51.14;101157.45;105762;1277;137345;-70
2022/08/09 07:32:41;;;;;;;7.90;3.80;;;;;;;22.94;50.70;101162.56;107346;1277;110381;-72
2022/08/09 07:35:16;;;;;;;10.30;3.50;;;;;;;23.02;50.38;101157.42;105926;1277;108954;-72
2022/08/09 07:37:50;;;;;;;9.60;3.30;;;;;;;23.12;50.47;101159.05;105924;1277;109564;-67
2022/08/09 07:40:25;;;;;;;14.30;4.40;;;;;;;23.24;50.31;101163.88;106829;1276;97170;-65
2022/08/09 07:43:17;;;;;;;10.20;2.70;;;;;;;23.41;49.98;101163.73;106483;1277;137971;-64
2022/08/09 07:45:49;;;;;;;7.30;3.10;;;;;;;23.58;49.58;101157.19;106049;1277;111345;-65
2022/08/09 07:48:22;;;;;;;7.80;3.10;;;;;;;23.76;49.09;101164.78;106540;1277;137494;-65
2022/08/09 07:51:02;;;;;;;10.90;3.30;;;;;;;23.95;48.60;101159.99;107221;1276;107895;-64
2022/08/09 07:53:54;;;;;;;11.10;2.90;;;;;;;24.17;48.56;101160.30;106010;1276;137945;-65
2022/08/09 07:56:41;;;;;;;9.10;3.20;;;;;;;24.37;47.96;101159.56;106131;1276;97047;-65
2022/08/09 07:59:21;;;;;;;9.60;2.90;;;;;;;24.53;47.71;101162.20;105941;1276;138317;-64
2022/08/09 08:01:56;;;;;;;12.10;3.00;;;;;;;24.70;47.77;101164.08;106086;1276;107835;-65
2022/08/09 08:04:29;;;;;;;10.20;3.30;;;;;;;24.88;47.18;101164.16;106246;1276;108900;-64
2022/08/09 08:07:04;;;;;;;13.20;3.00;;;;;;;25.02;46.89;101166.14;107425;1276;138196;-65
2022/08/09 08:09:56;;;;;;;11.80;3.40;;;;;;;25.15;46.26;101166.15;106207;1276;97164;-65
2022/08/09 08:12:41;;;;;;;9.90;2.60;;;;;;;25.29;46.17;101166.09;105942;1276;137533;-64
2022/08/09 08:15:19;;;;;;;8.20;2.50;;;;;;;25.41;45.64;101166.98;107574;1276;108908;-65
2022/08/09 08:17:55;;;;;;;9.90;3.00;;;;;;;25.52;45.37;101171.59;107384;1276;138445;-65
2022/08/09 08:20:31;;;;;;;5.70;2.50;;;;;;;25.61;44.79;101167.09;107453;1276;94978;-65
2022/08/09 08:23:06;;;;;;;5.60;2.80;;;;;;;25.72;44.38;101170.33;107509;1276;95748;-65
2022/08/09 08:25:50;;;;;;;8.00;3.60;;;;;;;25.84;44.21;101169.55;107571;1276;110221;-65
2022/08/09 08:28:25;;;;;;;8.70;2.90;;;;;;;25.99;44.36;101171.48;107504;1276;109120;-65
2022/08/09 08:31:04;;;;;;;7.40;3.30;;;;;;;26.13;44.01;101171.40;107302;1276;137616;-65
2022/08/09 08:33:46;;;;;;;13.80;3.60;;;;;;;26.22;43.35;101169.58;107488;1276;94658;-65
2022/08/09 08:36:25;;;;;;;15.70;4.40;;;;;;;26.27;43.03;101169.39;107368;1276;137672;-65
2022/08/09 08:39:01;;;;;;;11.50;4.10;;;;;;;26.37;43.08;101171.04;106189;1276;111123;-64
2022/08/09 08:41:36;;;;;;;13.20;3.60;;;;;;;26.44;42.88;101174.16;106082;1276;138184;-65
2022/08/09 08:44:23;;;;;;;7.90;3.10;;;;;;;26.48;42.55;101173.82;107425;1277;108791;-65
2022/08/09 08:46:58;;;;;;;;;;;;;;;26.52;42.28;101173.36;106064;1276;96532;-66
2022/08/09 08:49:43;;;;;;;5.90;2.90;;;;;;;26.59;42.09;101169.19;107394;1276;123605;-68
2022/08/09 08:52:19;;;;;;;;;;;;;;;26.76;41.94;101174.66;107506;1275;110177;-68
2022/08/09 08:55:12;;;;;;;7.80;3.00;;;;;;;26.91;42.07;101171.79;107376;1276;124823;-68
2022/08/09 08:57:51;;;;;;;12.10;2.80;;;;;;;27.06;41.79;101171.75;106020;1276;109490;-67
2022/08/09 09:00:30;;;;;;;7.80;2.60;;;;;;;27.19;41.23;101174.95;105916;1276;138159;-67
2022/08/09 09:03:06;;;;;;;11.10;2.50;;;;;;;27.22;40.72;101170.87;106008;1276;96499;-67
2022/08/09 09:05:55;;;;;;;8.30;3.00;;;;;;;27.19;40.50;101171.00;106147;1276;137696;-67
2022/08/09 09:08:39;;;;;;;5.90;2.70;;;;;;;27.10;40.54;101170.87;105990;1276;109094;-67
2022/08/09 09:11:13;;;;;;;7.70;2.30;;;;;;;27.07;40.05;101170.88;105976;1276;109074;-68
2022/08/09 09:13:52;;;;;;;8.40;2.40;;;;;;;27.02;40.02;101169.94;107445;1277;95456;-68
2022/08/09 09:16:32;;;;;;;7.20;2.40;;;;;;;26.96;39.66;101173.45;106302;1276;96481;-68
2022/08/09 09:19:08;;;;;;;8.40;2.20;;;;;;;26.96;39.98;101169.56;107433;1276;139498;-68
2022/08/09 09:22:03;;;;;;;3.70;2.10;;;;;;;27.01;39.87;101170.74;106133;1276;108972;-68
2022/08/09 09:24:41;;;;;;;7.10;2.00;;;;;;;27.03;39.66;101172.73;107324;1276;139091;-69
2022/08/09 09:27:19;;;;;;;4.40;2.00;;;;;;;27.01;39.54;101169.90;106465;1276;96582;-67
2022/08/09 09:30:15;;;;;;;2.90;2.00;;;;;;;26.95;39.21;101169.66;105969;1276;137366;-67
2022/08/09 09:33:09;;;;;;;8.70;2.50;;;;;;;26.93;38.94;101170.56;107542;1276;111191;-67
2022/08/09 09:36:00;;;;;;;5.20;2.20;;;;;;;26.98;39.00;101171.19;107371;1276;138466;-69
2022/08/09 09:38:55;;;;;;;4.70;2.20;;;;;;;27.11;39.03;101167.92;106979;1277;108744;-68
2022/08/09 09:41:34;;;;;;;4.50;1.80;;;;;;;27.26;39.02;101168.73;107400;1276;138128;-68
2022/08/09 09:44:28;;;;;;;2.90;2.00;;;;;;;27.45;38.87;101171.50;107075;1276;94602;-68
2022/08/09 09:47:08;;;;;;;5.20;1.90;;;;;;;27.65;38.98;101169.19;106090;1275;111388;-67
2022/08/09 09:49:49;;;;;;;3.30;1.70;;;;;;;27.84;38.09;101163.63;106974;1276;138476;-68
2022/08/09 09:52:50;;;;;;;4.60;1.80;;;;;;;27.90;37.62;101163.02;106068;1276;108847;-68
2022/08/09 09:55:26;;;;;;;5.90;2.00;;;;;;;28.00;37.75;101161.81;107360;1276;137686;-68
2022/08/09 09:58:07;;;;;;;5.10;1.80;;;;;;;28.09;37.34;101157.70;107557;1276;94363;-68
2022/08/09 10:00:53;;;;;;;3.40;1.90;;;;;;;28.20;37.31;101156.21;107416;1276;137722;-68
2022/08/09 10:03:42;;;;;;;6.00;1.90;;;;;;;28.25;37.08;101153.58;107483;1276;109016;-71
2022/08/09 10:06:15;;;;;;;3.60;2.30;;;;;;;28.14;36.54;101157.30;107318;1276;137718;-71
2022/08/09 10:08:49;;;;;;;4.40;1.90;;;;;;;28.09;36.87;101158.66;107442;1276;96125;-70
2022/08/09 10:11:31;;;;;;;3.30;2.00;;;;;;;28.14;37.00;101155.69;107334;1276;137675;-69
2022/08/09 10:14:25;;;;;;;5.90;2.20;;;;;;;28.29;37.34;101155.77;106829;1276;111502;-68
2022/08/09 10:17:12;;;;;;;6.10;1.80;;;;;;;28.43;37.32;101156.29;106060;1276;109812;-68
2022/08/09 10:20:22;;;;;;;4.10;1.80;;;;;;;28.48;36.51;101157.15;107167;1275;109000;-69
2022/08/09 10:23:17;;;;;;;3.00;2.00;;;;;;;28.54;36.90;101162.54;106175;1276;96518;-69
2022/08/09 10:25:52;;;;;;;5.00;2.10;;;;;;;28.63;36.70;101157.53;107349;1276;94946;-67
2022/08/09 10:28:43;;;;;;;3.70;1.90;;;;;;;28.73;36.14;101156.64;105940;1276;111130;-69
2022/08/09 10:31:35;;;;;;;4.90;2.00;;;;;;;28.74;35.83;101158.30;105799;1276;138622;-69
2022/08/09 10:34:28;;;;;;;3.40;2.10;;;;;;;28.73;35.80;101156.95;105849;1276;109104;-68
2022/08/09 10:37:07;;;;;;;4.90;2.10;;;;;;;28.76;35.75;101153.98;107355;1276;141715;-67
2022/08/09 10:39:45;;;;;;;3.90;2.20;;;;;;;28.74;36.05;101157.66;106154;1276;96565;-67
2022/08/09 10:42:23;;;;;;;3.40;1.80;;;;;;;28.72;35.92;101155.98;105892;1276;137392;-67
2022/08/09 10:44:59;;;;;;;3.30;2.10;;;;;;;28.64;35.44;101152.81;106942;1276;109367;-67
2022/08/09 10:47:55;;;;;;;3.90;2.10;;;;;;;28.53;35.16;101149.07;105871;1276;137815;-66
2022/08/09 10:51:10;;;;;;;4.80;2.00;;;;;;;28.38;35.48;101148.13;106900;1275;95194;-67
2022/08/09 10:54:00;;;;;;;3.50;2.10;;;;;;;28.23;35.19;101145.31;107269;1276;137611;-67
2022/08/09 10:56:38;;;;;;;2.50;2.10;;;;;;;28.07;34.84;101147.77;106137;1276;111295;-69
2022/08/09 10:59:30;;;;;;;4.80;2.20;;;;;;;27.95;35.35;101145.04;106151;1276;109231;-67
2022/08/09 11:02:39;;;;;;;6.10;2.60;;;;;;;27.84;35.30;101144.30;104801;1273;1711390;-68
2022/08/09 11:05:31;;;;;;;3.80;2.30;;;;;;;27.77;35.83;101146.94;105918;1276;137891;-69
2022/08/09 11:08:33;;;;;;;5.30;2.50;;;;;;;27.81;36.10;101139.56;107024;1276;95248;-69
2022/08/09 11:11:14;;;;;;;5.70;2.30;;;;;;;27.96;36.22;101135.80;106054;1276;110178;-68
2022/08/09 11:14:07;;;;;;;3.20;2.00;;;;;;;28.16;35.99;101134.35;106121;1276;108807;-67
2022/08/09 11:16:47;;;;;;;5.00;2.00;;;;;;;28.52;35.92;101134.23;106050;1276;109368;-67
2022/08/09 11:19:56;;;;;;;5.60;2.20;;;;;;;28.94;35.70;101135.09;105859;1276;138335;-67
2022/08/09 11:23:04;;;;;;;8.00;2.20;;;;;;;29.32;35.40;101129.08;107453;1277;94719;-68
2022/08/09 11:25:50;;;;;;;3.50;1.90;;;;;;;29.60;34.83;101125.70;106514;1276;137221;-68
2022/08/09 11:28:42;;;;;;;6.60;2.40;;;;;;;29.83;34.50;101124.14;106193;1276;106240;-67
2022/08/09 11:31:56;;;;;;;4.90;2.00;;;;;;;29.99;33.78;101117.15;107001;1276;137499;-67
2022/08/09 11:34:42;;;;;;;3.90;2.10;;;;;;;30.09;33.46;101120.08;106030;1276;96572;-67
2022/08/09 11:37:26;;;;;;;2.70;2.30;;;;;;;30.18;33.35;101117.10;107403;1276;137432;-67
2022/08/09 11:40:14;;;;;;;3.90;2.30;;;;;;;30.25;33.35;101121.49;106105;1276;110194;-67
2022/08/09 11:42:50;;;;;;;7.80;2.30;;;;;;;30.22;33.03;101117.67;107338;1276;137511;-69
2022/08/09 11:45:27;;;;;;;4.90;2.10;;;;;;;30.28;33.20;101120.70;106363;1276;108858;-69
2022/08/09 11:48:21;;;;;;;5.30;1.80;;;;;;;30.23;32.74;101115.83;106415;1276;137780;-68
2022/08/09 11:51:04;;;;;;;3.90;1.90;;;;;;;30.36;32.77;101119.16;107491;1276;94928;-69
2022/08/09 11:54:17;;;;;;;2.60;2.10;;;;;;;30.47;32.71;101117.66;107415;1276;137899;-68
2022/08/09 11:57:35;;;;;;;4.50;2.10;;;;;;;30.49;32.36;101112.27;107451;1277;107851;-68
2022/08/09 12:00:28;;;;;;;4.50;2.00;;;;;;;30.49;31.89;101105.61;107332;1276;138008;-68
2022/08/09 12:03:02;;;;;;;5.80;2.40;;;;;;;30.38;31.87;101108.86;107446;1276;94688;-68
2022/08/09 12:05:56;;;;;;;4.70;2.00;;;;;;;30.45;32.37;101104.08;107382;1274;138658;-68
2022/08/09 12:08:30;;;;;;;5.50;2.00;;;;;;;30.62;32.23;101104.83;106212;1276;111201;-69
2022/08/09 12:11:02;;;;;;;2.50;2.00;;;;;;;30.75;31.87;101105.13;106038;1276;109105;-68
2022/08/09 12:13:46;;;;;;;4.80;2.10;;;;;;;30.65;31.53;101108.27;105878;1275;138495;-68